createdAt,value
2024-01-08T00:03:17.466Z,63.41
2024-01-08T00:08:20.235Z,63.38
2024-01-08T00:13:22.128Z,63.44
2024-01-08T00:18:24.148Z,63.42
2024-01-08T00:23:26.393Z,63.27
2024-01-08T00:28:28.306Z,63.42
2024-01-08T00:33:30.288Z,63.46
2024-01-08T00:38:32.272Z,63.20
2024-01-08T00:43:34.324Z,63.29
2024-01-08T00:48:36.336Z,63.52
2024-01-08T00:53:38.428Z,63.37
2024-01-08T00:58:43.349Z,63.46
2024-01-08T01:03:45.410Z,63.60
2024-01-08T01:08:47.705Z,63.58
2024-01-08T01:13:49.731Z,63.53
2024-01-08T01:18:51.897Z,63.72
2024-01-08T01:23:53.990Z,63.67
2024-01-08T01:28:56.007Z,63.86
2024-01-08T01:33:58.169Z,63.88
2024-01-08T01:39:00.569Z,64.00
2024-01-08T01:44:02.552Z,63.93
2024-01-08T01:49:05.893Z,63.95
2024-01-08T01:54:09.601Z,64.02
2024-01-08T01:59:12.065Z,63.88
2024-01-08T02:04:16.817Z,63.66
2024-01-08T02:09:19.694Z,63.21
2024-01-08T02:14:21.646Z,63.21
2024-01-08T02:19:23.599Z,63.46
2024-01-08T02:24:30.065Z,63.36
2024-01-08T02:29:32.038Z,63.51
2024-01-08T02:34:34.937Z,63.52
2024-01-08T02:39:37.470Z,63.43
2024-01-08T02:44:39.347Z,63.38
2024-01-08T02:49:41.290Z,63.17
2024-01-08T02:54:43.293Z,63.26
2024-01-08T02:59:45.191Z,63.11
2024-01-08T03:04:47.251Z,63.00
2024-01-08T03:09:50.320Z,62.78
2024-01-08T03:14:53.212Z,62.44
2024-01-08T03:19:55.398Z,62.13
2024-01-08T03:24:57.607Z,61.99
2024-01-08T03:29:59.553Z,61.90
2024-01-08T03:35:02.016Z,61.64
2024-01-08T03:40:06.177Z,61.47
2024-01-08T03:45:10.656Z,61.50
2024-01-08T03:50:12.870Z,61.45
2024-01-08T03:55:14.953Z,61.18
2024-01-08T04:00:17.513Z,60.96
2024-01-08T04:05:19.718Z,60.60
2024-01-08T04:10:22.392Z,60.68
2024-01-08T04:15:24.769Z,60.63
2024-01-08T04:20:26.871Z,60.53
2024-01-08T04:25:28.983Z,60.55
2024-01-08T04:30:31.118Z,60.55
2024-01-08T04:35:33.656Z,60.45
2024-01-08T04:40:36.000Z,60.47
2024-01-08T04:45:38.237Z,60.47
2024-01-08T04:50:40.396Z,60.73
2024-01-08T04:55:42.692Z,60.44
2024-01-08T05:00:44.872Z,60.33
2024-01-08T05:05:47.021Z,60.17
2024-01-08T05:10:49.561Z,59.92
2024-01-08T05:15:51.599Z,59.96
2024-01-08T05:20:53.748Z,59.97
2024-01-08T05:26:00.794Z,59.92
2024-01-08T05:31:04.042Z,60.04
2024-01-08T05:36:06.753Z,59.80
2024-01-08T05:41:08.994Z,59.37
2024-01-08T05:46:11.642Z,59.22
2024-01-08T05:51:13.877Z,59.48
2024-01-08T05:56:15.967Z,59.29
2024-01-08T06:01:21.365Z,59.05
2024-01-08T06:06:23.807Z,59.33
2024-01-08T06:11:26.080Z,59.82
2024-01-08T06:16:32.430Z,59.73
2024-01-08T06:21:34.465Z,59.69
2024-01-08T06:26:36.757Z,59.65
2024-01-08T06:31:39.046Z,59.57
2024-01-08T06:36:41.516Z,59.52
2024-01-08T06:41:44.386Z,59.70
2024-01-08T06:46:47.813Z,59.54
2024-01-08T06:51:50.399Z,59.65
2024-01-08T06:56:52.488Z,59.76
2024-01-08T07:01:55.592Z,59.98
2024-01-08T07:06:57.675Z,59.42
2024-01-08T07:12:00.698Z,59.58
2024-01-08T07:17:02.939Z,59.65
2024-01-08T07:22:05.576Z,59.65
2024-01-08T07:27:09.527Z,59.38
2024-01-08T07:32:12.508Z,59.27
2024-01-08T07:37:15.013Z,59.22
2024-01-08T07:42:17.244Z,59.50
2024-01-08T07:47:19.804Z,59.32
2024-01-08T07:52:28.004Z,59.31
2024-01-08T07:57:37.196Z,59.09
2024-01-08T08:02:43.847Z,59.05
2024-01-08T08:07:46.083Z,59.08
2024-01-08T08:12:48.019Z,58.77
2024-01-08T08:17:52.074Z,58.75
2024-01-08T08:22:54.912Z,58.29
2024-01-08T08:27:56.893Z,58.38
2024-01-08T08:33:00.670Z,58.08
2024-01-08T08:38:03.276Z,58.29
2024-01-08T08:43:07.464Z,58.10
2024-01-08T08:48:11.178Z,58.16
2024-01-08T08:53:13.320Z,58.24
2024-01-08T08:58:15.737Z,58.18
2024-01-08T09:03:18.467Z,58.29
2024-01-08T09:08:29.849Z,58.49
2024-01-08T09:13:32.005Z,58.42
2024-01-08T09:18:34.048Z,58.00
2024-01-08T09:23:38.763Z,58.33
2024-01-08T09:28:40.875Z,57.82
2024-01-08T09:33:45.794Z,58.09
2024-01-08T09:38:48.242Z,57.99
2024-01-08T09:43:52.104Z,57.91
2024-01-08T09:48:58.064Z,57.76
2024-01-08T09:54:01.617Z,58.18
2024-01-08T09:59:03.995Z,58.11
2024-01-08T10:04:06.498Z,58.14
2024-01-08T10:09:09.218Z,58.11
2024-01-08T10:14:12.172Z,58.04
2024-01-08T10:19:17.082Z,57.84
2024-01-08T10:24:26.028Z,57.90
2024-01-08T10:29:30.705Z,57.74
2024-01-08T10:34:37.725Z,57.69
2024-01-08T10:39:48.154Z,57.76
2024-01-08T10:44:53.640Z,57.92
2024-01-08T10:50:00.684Z,58.13
2024-01-08T10:55:04.090Z,57.98
2024-01-08T11:00:11.157Z,57.55
2024-01-08T11:05:15.704Z,57.94
2024-01-08T11:10:19.725Z,57.52
2024-01-08T11:15:25.171Z,57.88
2024-01-08T11:20:48.785Z,57.70
2024-01-08T11:25:55.452Z,57.85
2024-01-08T11:31:33.086Z,57.50
2024-01-08T11:36:49.908Z,57.77
2024-01-08T11:41:52.308Z,57.92
2024-01-08T11:46:57.676Z,57.95
2024-01-08T11:52:04.887Z,57.95
2024-01-08T11:57:07.274Z,58.38
2024-01-08T12:02:12.841Z,58.06
2024-01-08T12:07:14.974Z,57.79
2024-01-08T12:12:18.974Z,57.93
2024-01-08T12:17:22.227Z,58.00
2024-01-08T12:22:26.865Z,57.93
2024-01-08T12:27:32.215Z,57.80
2024-01-08T12:32:34.594Z,57.63
2024-01-08T12:37:36.819Z,57.45
2024-01-08T12:42:38.823Z,57.65
2024-01-08T12:47:40.998Z,57.61
2024-01-08T12:52:43.366Z,57.50
2024-01-08T12:57:46.551Z,57.33
2024-01-08T13:02:48.628Z,57.17
2024-01-08T13:07:50.806Z,57.07
2024-01-08T13:12:52.826Z,57.06
2024-01-08T13:17:54.994Z,57.02
2024-01-08T13:22:57.774Z,56.50
2024-01-08T13:28:00.169Z,56.86
2024-01-08T13:33:02.251Z,56.63
2024-01-08T13:38:04.567Z,56.39
2024-01-08T13:43:08.289Z,56.33
2024-01-08T13:48:11.319Z,56.07
2024-01-08T13:53:13.780Z,56.09
2024-01-08T13:58:16.063Z,55.88
2024-01-08T14:03:19.593Z,55.85
2024-01-08T14:08:22.008Z,55.51
2024-01-08T14:13:23.936Z,55.45
2024-01-08T14:18:26.421Z,55.43
2024-01-08T14:23:30.080Z,55.37
2024-01-08T14:28:32.403Z,55.34
2024-01-08T14:33:34.577Z,55.37
2024-01-08T14:38:37.001Z,54.80
2024-01-08T14:43:39.397Z,55.21
2024-01-08T14:48:41.651Z,55.42
2024-01-08T14:53:46.064Z,55.30
2024-01-08T14:58:48.518Z,55.15
2024-01-08T15:03:50.741Z,55.23
2024-01-08T15:08:54.511Z,55.30
2024-01-08T15:13:56.820Z,55.09
2024-01-08T15:18:59.006Z,55.12
2024-01-08T15:24:01.317Z,55.26
2024-01-08T15:29:05.921Z,55.12
2024-01-08T15:34:08.174Z,55.39
2024-01-08T15:39:15.691Z,55.39
2024-01-08T15:44:18.231Z,55.64
2024-01-08T15:49:20.351Z,55.72
2024-01-08T15:54:24.762Z,55.72
2024-01-08T15:59:26.878Z,55.79
2024-01-08T16:04:29.241Z,55.56
2024-01-08T16:09:32.615Z,56.07
2024-01-08T16:14:34.969Z,56.08
2024-01-08T16:19:37.103Z,56.17
2024-01-08T16:24:39.119Z,56.14
2024-01-08T16:29:41.273Z,56.28
2024-01-08T16:34:49.592Z,56.25
2024-01-08T16:40:00.711Z,56.20
2024-01-08T16:45:02.700Z,56.50
2024-01-08T16:50:05.026Z,56.54
2024-01-08T16:55:07.627Z,56.65
2024-01-08T17:00:12.208Z,56.58
2024-01-08T17:05:14.867Z,56.58
2024-01-08T17:10:17.754Z,56.58
2024-01-08T17:15:19.992Z,56.84
2024-01-08T17:20:22.079Z,56.78
2024-01-08T17:25:24.314Z,56.72
2024-01-08T17:30:26.291Z,56.78
2024-01-08T17:35:28.632Z,57.05
2024-01-08T17:40:31.181Z,56.96
2024-01-08T17:45:33.407Z,56.93
2024-01-08T17:50:39.176Z,57.00
2024-01-08T17:55:41.587Z,56.95
2024-01-08T18:00:44.109Z,56.83
2024-01-08T18:05:49.095Z,57.14
2024-01-08T18:10:52.230Z,56.84
2024-01-08T18:15:54.272Z,57.07
2024-01-08T18:20:57.541Z,56.99
2024-01-08T18:25:59.689Z,57.02
2024-01-08T18:31:02.727Z,57.39
2024-01-08T18:36:06.316Z,57.27
2024-01-08T18:41:08.503Z,57.15
2024-01-08T18:46:10.895Z,57.35
2024-01-08T18:51:12.896Z,57.19
2024-01-08T18:56:14.954Z,57.53
2024-01-08T19:01:17.875Z,57.68
2024-01-08T19:06:20.029Z,57.52
2024-01-08T19:11:22.045Z,57.56
2024-01-08T19:16:23.996Z,57.70
2024-01-08T19:21:26.069Z,57.82
2024-01-08T19:26:28.611Z,57.89
2024-01-08T19:31:31.668Z,57.93
2024-01-08T19:36:33.752Z,57.91
2024-01-08T19:41:36.162Z,58.02
2024-01-08T19:46:38.435Z,57.80
2024-01-08T19:51:41.768Z,57.86
2024-01-08T19:56:46.351Z,57.98
2024-01-08T20:01:48.678Z,58.04
2024-01-08T20:06:50.811Z,58.03
2024-01-08T20:11:53.000Z,57.92
2024-01-08T20:16:55.199Z,58.21
2024-01-08T20:21:57.345Z,58.12
2024-01-08T20:27:00.951Z,57.80
2024-01-08T20:32:07.303Z,57.89
2024-01-08T20:37:09.593Z,57.75
2024-01-08T20:42:11.534Z,57.89
2024-01-08T20:47:14.547Z,57.80
2024-01-08T20:52:16.684Z,57.75
2024-01-08T20:57:21.726Z,57.99
2024-01-08T21:02:23.737Z,57.75
2024-01-08T21:07:25.750Z,57.70
2024-01-08T21:12:27.950Z,57.77
2024-01-08T21:17:30.240Z,57.83
2024-01-08T21:22:33.297Z,57.64
2024-01-08T21:27:35.321Z,58.04
2024-01-08T21:32:39.190Z,58.02
2024-01-08T21:37:42.441Z,57.87
2024-01-08T21:42:45.420Z,57.85
2024-01-08T21:47:47.768Z,57.75
2024-01-08T21:52:50.402Z,57.65
2024-01-08T21:57:52.281Z,57.64
2024-01-08T22:02:54.752Z,57.81
2024-01-08T22:07:57.933Z,57.45
2024-01-08T22:13:00.199Z,57.68
2024-01-08T22:18:02.537Z,57.91
2024-01-08T22:23:05.051Z,57.69
2024-01-08T22:28:07.178Z,57.77
2024-01-08T22:33:12.655Z,57.78
2024-01-08T22:38:15.186Z,57.84
2024-01-08T22:43:17.222Z,57.73
2024-01-08T22:48:19.232Z,57.79
2024-01-08T22:53:21.619Z,57.77
2024-01-08T22:58:23.666Z,57.66
2024-01-08T23:03:26.118Z,57.84
2024-01-08T23:08:28.266Z,57.78
2024-01-08T23:13:30.304Z,57.98
2024-01-08T23:18:35.314Z,57.93
2024-01-08T23:23:37.528Z,58.01
2024-01-08T23:28:39.578Z,58.10
2024-01-08T23:33:41.798Z,58.14
2024-01-08T23:38:44.800Z,58.03
2024-01-08T23:43:46.970Z,58.13
2024-01-08T23:48:49.197Z,58.35
2024-01-08T23:53:51.637Z,58.58
2024-01-08T23:58:53.595Z,58.08
